sensor_id;sensor_type;location;lat;lon;timestamp;temperature;humidity
7461;DHT22;6757;52.258;12.840;2022-11-14T00:00:49;5.00;99.90
7461;DHT22;6757;52.258;12.840;2022-11-14T00:03:16;5.00;99.90
7461;DHT22;6757;52.258;12.840;2022-11-14T00:05:44;5.00;99.90
7461;DHT22;6757;52.258;12.840;2022-11-14T00:08:18;5.00;99.90
7461;DHT22;6757;52.258;12.840;2022-11-14T00:10:48;5.00;99.90
7461;DHT22;6757;52.258;12.840;2022-11-14T00:13:17;5.00;99.90
7461;DHT22;6757;52.258;12.840;2022-11-14T00:15:47;5.00;99.90
7461;DHT22;6757;52.258;12.840;2022-11-14T00:18:15;5.00;99.90
7461;DHT22;6757;52.258;12.840;2022-11-14T00:20:42;5.00;99.90
7461;DHT22;6757;52.258;12.840;2022-11-14T00:23:09;5.00;99.90
7461;DHT22;6757;52.258;12.840;2022-11-14T00:25:36;5.00;99.90
7461;DHT22;6757;52.258;12.840;2022-11-14T00:28:04;5.00;99.90
7461;DHT22;6757;52.258;12.840;2022-11-14T00:30:31;5.00;99.90
7461;DHT22;6757;52.258;12.840;2022-11-14T00:32:58;5.00;99.90
7461;DHT22;6757;52.258;12.840;2022-11-14T00:35:25;5.00;99.90
7461;DHT22;6757;52.258;12.840;2022-11-14T00:37:52;5.00;99.90
7461;DHT22;6757;52.258;12.840;2022-11-14T00:40:19;5.00;99.90
7461;DHT22;6757;52.258;12.840;2022-11-14T00:42:45;5.00;99.90
7461;DHT22;6757;52.258;12.840;2022-11-14T00:45:14;5.00;99.90
7461;DHT22;6757;52.258;12.840;2022-11-14T00:47:41;5.00;99.90
7461;DHT22;6757;52.258;12.840;2022-11-14T00:50:09;5.00;99.90
7461;DHT22;6757;52.258;12.840;2022-11-14T00:52:36;5.00;99.90
7461;DHT22;6757;52.258;12.840;2022-11-14T00:55:03;5.10;99.90
7461;DHT22;6757;52.258;12.840;2022-11-14T00:57:31;5.10;99.90
7461;DHT22;6757;52.258;12.840;2022-11-14T00:59:58;5.10;99.90
7461;DHT22;6757;52.258;12.840;2022-11-14T01:02:26;5.10;99.90
7461;DHT22;6757;52.258;12.840;2022-11-14T01:04:53;5.10;99.90
7461;DHT22;6757;52.258;12.840;2022-11-14T01:07:20;5.10;99.90
7461;DHT22;6757;52.258;12.840;2022-11-14T01:09:47;5.10;99.90
7461;DHT22;6757;52.258;12.840;2022-11-14T01:12:13;5.20;99.90
7461;DHT22;6757;52.258;12.840;2022-11-14T01:14:40;5.20;99.90
7461;DHT22;6757;52.258;12.840;2022-11-14T01:17:07;5.20;99.90
7461;DHT22;6757;52.258;12.840;2022-11-14T01:19:36;5.20;99.90
7461;DHT22;6757;52.258;12.840;2022-11-14T01:22:03;5.20;99.90
7461;DHT22;6757;52.258;12.840;2022-11-14T01:24:31;5.30;99.90
7461;DHT22;6757;52.258;12.840;2022-11-14T01:26:58;5.30;99.90
7461;DHT22;6757;52.258;12.840;2022-11-14T01:29:25;5.30;99.90
7461;DHT22;6757;52.258;12.840;2022-11-14T01:31:52;5.30;99.90
7461;DHT22;6757;52.258;12.840;2022-11-14T01:34:19;5.30;99.90
7461;DHT22;6757;52.258;12.840;2022-11-14T01:36:48;5.30;99.90
7461;DHT22;6757;52.258;12.840;2022-11-14T01:39:14;5.30;99.90
7461;DHT22;6757;52.258;12.840;2022-11-14T01:41:41;5.30;99.90
7461;DHT22;6757;52.258;12.840;2022-11-14T01:44:12;5.40;99.90
7461;DHT22;6757;52.258;12.840;2022-11-14T01:46:45;5.40;99.90
7461;DHT22;6757;52.258;12.840;2022-11-14T01:49:16;5.40;99.90
7461;DHT22;6757;52.258;12.840;2022-11-14T01:51:49;5.40;99.90
7461;DHT22;6757;52.258;12.840;2022-11-14T01:54:29;5.40;99.90
7461;DHT22;6757;52.258;12.840;2022-11-14T01:57:01;5.40;99.90
7461;DHT22;6757;52.258;12.840;2022-11-14T01:59:31;5.40;99.90
7461;DHT22;6757;52.258;12.840;2022-11-14T02:02:04;5.40;99.90
7461;DHT22;6757;52.258;12.840;2022-11-14T02:04:35;5.40;99.90
7461;DHT22;6757;52.258;12.840;2022-11-14T02:07:07;5.40;99.90
7461;DHT22;6757;52.258;12.840;2022-11-14T02:09:38;5.40;99.90
7461;DHT22;6757;52.258;12.840;2022-11-14T02:12:09;5.40;99.90
7461;DHT22;6757;52.258;12.840;2022-11-14T02:14:38;5.40;99.90
7461;DHT22;6757;52.258;12.840;2022-11-14T02:17:05;5.40;99.90
7461;DHT22;6757;52.258;12.840;2022-11-14T02:19:43;5.50;99.90
7461;DHT22;6757;52.258;12.840;2022-11-14T02:22:12;5.50;99.90
7461;DHT22;6757;52.258;12.840;2022-11-14T02:24:40;5.50;99.90
7461;DHT22;6757;52.258;12.840;2022-11-14T02:27:07;5.50;99.90
7461;DHT22;6757;52.258;12.840;2022-11-14T02:29:36;5.50;99.90
7461;DHT22;6757;52.258;12.840;2022-11-14T02:32:03;5.50;99.90
7461;DHT22;6757;52.258;12.840;2022-11-14T02:34:31;5.50;99.90
7461;DHT22;6757;52.258;12.840;2022-11-14T02:36:58;5.60;99.90
7461;DHT22;6757;52.258;12.840;2022-11-14T02:39:26;5.50;99.90
7461;DHT22;6757;52.258;12.840;2022-11-14T02:41:53;5.60;99.90
7461;DHT22;6757;52.258;12.840;2022-11-14T02:44:20;5.60;99.90
7461;DHT22;6757;52.258;12.840;2022-11-14T02:46:47;5.60;99.90
7461;DHT22;6757;52.258;12.840;2022-11-14T02:49:14;5.60;99.90
7461;DHT22;6757;52.258;12.840;2022-11-14T02:51:41;5.60;99.90
7461;DHT22;6757;52.258;12.840;2022-11-14T02:54:08;5.60;99.90
7461;DHT22;6757;52.258;12.840;2022-11-14T02:56:36;5.60;99.90
7461;DHT22;6757;52.258;12.840;2022-11-14T02:59:03;5.60;99.90
7461;DHT22;6757;52.258;12.840;2022-11-14T03:01:30;5.60;99.90
7461;DHT22;6757;52.258;12.840;2022-11-14T03:03:56;5.60;99.90
7461;DHT22;6757;52.258;12.840;2022-11-14T03:06:23;5.70;99.90
7461;DHT22;6757;52.258;12.840;2022-11-14T03:08:50;5.70;99.90
7461;DHT22;6757;52.258;12.840;2022-11-14T03:11:17;5.70;99.90
7461;DHT22;6757;52.258;12.840;2022-11-14T03:13:45;5.70;99.90
7461;DHT22;6757;52.258;12.840;2022-11-14T03:16:12;5.70;99.90
7461;DHT22;6757;52.258;12.840;2022-11-14T03:18:40;5.70;99.90
7461;DHT22;6757;52.258;12.840;2022-11-14T03:21:08;5.70;99.90
7461;DHT22;6757;52.258;12.840;2022-11-14T03:23:36;5.70;99.90
7461;DHT22;6757;52.258;12.840;2022-11-14T03:26:05;5.70;99.90
7461;DHT22;6757;52.258;12.840;2022-11-14T03:28:33;5.70;99.90
7461;DHT22;6757;52.258;12.840;2022-11-14T03:31:02;5.70;99.90
7461;DHT22;6757;52.258;12.840;2022-11-14T03:33:30;5.80;99.90
7461;DHT22;6757;52.258;12.840;2022-11-14T03:35:59;5.80;99.90
7461;DHT22;6757;52.258;12.840;2022-11-14T03:38:26;5.80;99.90
7461;DHT22;6757;52.258;12.840;2022-11-14T03:40:53;5.80;99.90
7461;DHT22;6757;52.258;12.840;2022-11-14T03:43:21;5.80;99.90
7461;DHT22;6757;52.258;12.840;2022-11-14T03:45:47;5.80;99.90
7461;DHT22;6757;52.258;12.840;2022-11-14T03:48:16;5.80;99.90
7461;DHT22;6757;52.258;12.840;2022-11-14T03:50:43;5.80;99.90
7461;DHT22;6757;52.258;12.840;2022-11-14T03:53:10;5.80;99.90
7461;DHT22;6757;52.258;12.840;2022-11-14T03:55:37;5.80;99.90
7461;DHT22;6757;52.258;12.840;2022-11-14T03:58:04;5.80;99.90
7461;DHT22;6757;52.258;12.840;2022-11-14T04:00:31;5.70;99.90
7461;DHT22;6757;52.258;12.840;2022-11-14T04:02:58;5.80;99.90
7461;DHT22;6757;52.258;12.840;2022-11-14T04:05:27;5.80;99.90
7461;DHT22;6757;52.258;12.840;2022-11-14T04:07:54;5.80;99.90
7461;DHT22;6757;52.258;12.840;2022-11-14T04:10:21;5.80;99.90
7461;DHT22;6757;52.258;12.840;2022-11-14T04:12:48;5.70;99.90
7461;DHT22;6757;52.258;12.840;2022-11-14T04:15:15;5.70;99.90
7461;DHT22;6757;52.258;12.840;2022-11-14T04:17:42;5.70;99.90
7461;DHT22;6757;52.258;12.840;2022-11-14T04:20:10;5.70;99.90
7461;DHT22;6757;52.258;12.840;2022-11-14T04:22:40;5.70;99.90
7461;DHT22;6757;52.258;12.840;2022-11-14T04:25:08;5.60;99.90
7461;DHT22;6757;52.258;12.840;2022-11-14T04:27:35;5.70;99.90
7461;DHT22;6757;52.258;12.840;2022-11-14T04:30:03;5.70;99.90
7461;DHT22;6757;52.258;12.840;2022-11-14T04:32:30;5.60;99.90
7461;DHT22;6757;52.258;12.840;2022-11-14T04:34:57;5.60;99.90
7461;DHT22;6757;52.258;12.840;2022-11-14T04:37:24;5.60;99.90
7461;DHT22;6757;52.258;12.840;2022-11-14T04:39:53;5.60;99.90
7461;DHT22;6757;52.258;12.840;2022-11-14T04:42:23;5.60;99.90
7461;DHT22;6757;52.258;12.840;2022-11-14T04:44:50;5.60;99.90
7461;DHT22;6757;52.258;12.840;2022-11-14T04:47:17;5.70;99.90
7461;DHT22;6757;52.258;12.840;2022-11-14T04:49:44;5.70;99.90
7461;DHT22;6757;52.258;12.840;2022-11-14T04:52:11;5.70;99.90
7461;DHT22;6757;52.258;12.840;2022-11-14T04:54:38;5.70;99.90
7461;DHT22;6757;52.258;12.840;2022-11-14T04:57:06;5.70;99.90
7461;DHT22;6757;52.258;12.840;2022-11-14T04:59:33;5.60;99.90
7461;DHT22;6757;52.258;12.840;2022-11-14T05:02:00;5.60;99.90
7461;DHT22;6757;52.258;12.840;2022-11-14T05:04:27;5.60;99.90
7461;DHT22;6757;52.258;12.840;2022-11-14T05:06:54;5.60;99.90
7461;DHT22;6757;52.258;12.840;2022-11-14T05:09:21;5.60;99.90
7461;DHT22;6757;52.258;12.840;2022-11-14T05:11:48;5.60;99.90
7461;DHT22;6757;52.258;12.840;2022-11-14T05:14:16;5.60;99.90
7461;DHT22;6757;52.258;12.840;2022-11-14T05:16:43;5.60;99.90
7461;DHT22;6757;52.258;12.840;2022-11-14T05:19:10;5.60;99.90
7461;DHT22;6757;52.258;12.840;2022-11-14T05:21:36;5.60;99.90
7461;DHT22;6757;52.258;12.840;2022-11-14T05:24:04;5.60;99.90
7461;DHT22;6757;52.258;12.840;2022-11-14T05:26:31;5.60;99.90
7461;DHT22;6757;52.258;12.840;2022-11-14T05:28:58;5.60;99.90
7461;DHT22;6757;52.258;12.840;2022-11-14T05:31:26;5.60;99.90
7461;DHT22;6757;52.258;12.840;2022-11-14T05:33:53;5.50;99.90
7461;DHT22;6757;52.258;12.840;2022-11-14T05:36:20;5.50;99.90
7461;DHT22;6757;52.258;12.840;2022-11-14T05:38:47;5.40;99.90
7461;DHT22;6757;52.258;12.840;2022-11-14T05:41:15;5.40;99.90
7461;DHT22;6757;52.258;12.840;2022-11-14T05:43:44;5.40;99.90
7461;DHT22;6757;52.258;12.840;2022-11-14T05:46:13;5.30;99.90
7461;DHT22;6757;52.258;12.840;2022-11-14T05:48:42;5.30;99.90
7461;DHT22;6757;52.258;12.840;2022-11-14T05:51:10;5.20;99.90
7461;DHT22;6757;52.258;12.840;2022-11-14T05:53:38;5.20;99.90
7461;DHT22;6757;52.258;12.840;2022-11-14T05:56:08;5.20;99.90
7461;DHT22;6757;52.258;12.840;2022-11-14T05:58:37;5.10;99.90
7461;DHT22;6757;52.258;12.840;2022-11-14T06:01:05;5.10;99.90
7461;DHT22;6757;52.258;12.840;2022-11-14T06:03:35;5.10;99.90
7461;DHT22;6757;52.258;12.840;2022-11-14T06:06:06;5.00;99.90
7461;DHT22;6757;52.258;12.840;2022-11-14T06:08:34;5.00;99.90
7461;DHT22;6757;52.258;12.840;2022-11-14T06:11:03;5.00;99.90
7461;DHT22;6757;52.258;12.840;2022-11-14T06:13:32;5.00;99.90
7461;DHT22;6757;52.258;12.840;2022-11-14T06:15:59;5.00;99.90
7461;DHT22;6757;52.258;12.840;2022-11-14T06:18:27;4.90;99.90
7461;DHT22;6757;52.258;12.840;2022-11-14T06:20:58;4.90;99.90
7461;DHT22;6757;52.258;12.840;2022-11-14T06:23:27;4.90;99.90
7461;DHT22;6757;52.258;12.840;2022-11-14T06:25:57;4.90;99.90
7461;DHT22;6757;52.258;12.840;2022-11-14T06:28:26;4.90;99.90
7461;DHT22;6757;52.258;12.840;2022-11-14T06:30:56;4.80;99.90
7461;DHT22;6757;52.258;12.840;2022-11-14T06:33:24;4.80;99.90
7461;DHT22;6757;52.258;12.840;2022-11-14T06:35:56;4.80;99.90
7461;DHT22;6757;52.258;12.840;2022-11-14T06:38:24;4.80;99.90
7461;DHT22;6757;52.258;12.840;2022-11-14T06:40:52;4.80;99.90
7461;DHT22;6757;52.258;12.840;2022-11-14T06:43:27;4.80;99.90
7461;DHT22;6757;52.258;12.840;2022-11-14T06:45:54;4.80;99.90
7461;DHT22;6757;52.258;12.840;2022-11-14T06:48:21;4.80;99.90
7461;DHT22;6757;52.258;12.840;2022-11-14T06:50:51;4.80;99.90
7461;DHT22;6757;52.258;12.840;2022-11-14T06:53:18;4.80;99.90
7461;DHT22;6757;52.258;12.840;2022-11-14T06:55:53;4.80;99.90
7461;DHT22;6757;52.258;12.840;2022-11-14T06:58:21;4.80;99.90
7461;DHT22;6757;52.258;12.840;2022-11-14T07:00:48;4.80;99.90
7461;DHT22;6757;52.258;12.840;2022-11-14T07:03:14;4.80;99.90
7461;DHT22;6757;52.258;12.840;2022-11-14T07:05:41;4.80;99.90
7461;DHT22;6757;52.258;12.840;2022-11-14T07:08:08;4.70;99.90
7461;DHT22;6757;52.258;12.840;2022-11-14T07:10:35;4.80;99.90
7461;DHT22;6757;52.258;12.840;2022-11-14T07:13:04;4.80;99.90
7461;DHT22;6757;52.258;12.840;2022-11-14T07:15:31;4.80;99.90
7461;DHT22;6757;52.258;12.840;2022-11-14T07:17:58;4.80;99.90
7461;DHT22;6757;52.258;12.840;2022-11-14T07:20:25;4.80;99.90
7461;DHT22;6757;52.258;12.840;2022-11-14T07:22:51;4.80;99.90
7461;DHT22;6757;52.258;12.840;2022-11-14T07:25:18;4.80;99.90
7461;DHT22;6757;52.258;12.840;2022-11-14T07:27:47;4.80;99.90
7461;DHT22;6757;52.258;12.840;2022-11-14T07:30:15;4.80;99.90
7461;DHT22;6757;52.258;12.840;2022-11-14T07:32:42;4.80;99.90
7461;DHT22;6757;52.258;12.840;2022-11-14T07:35:09;4.80;99.90
7461;DHT22;6757;52.258;12.840;2022-11-14T07:37:36;4.80;99.90
7461;DHT22;6757;52.258;12.840;2022-11-14T07:40:03;4.80;99.90
7461;DHT22;6757;52.258;12.840;2022-11-14T07:42:31;4.80;99.90
7461;DHT22;6757;52.258;12.840;2022-11-14T07:44:58;4.80;99.90
7461;DHT22;6757;52.258;12.840;2022-11-14T07:47:27;4.90;99.90
7461;DHT22;6757;52.258;12.840;2022-11-14T07:49:54;4.90;99.90
7461;DHT22;6757;52.258;12.840;2022-11-14T07:52:21;4.90;99.90
7461;DHT22;6757;52.258;12.840;2022-11-14T07:54:47;4.90;99.90
7461;DHT22;6757;52.258;12.840;2022-11-14T07:57:14;4.90;99.90
7461;DHT22;6757;52.258;12.840;2022-11-14T07:59:41;5.00;99.90
7461;DHT22;6757;52.258;12.840;2022-11-14T08:02:11;5.00;99.90
7461;DHT22;6757;52.258;12.840;2022-11-14T08:04:40;5.00;99.90
7461;DHT22;6757;52.258;12.840;2022-11-14T08:07:07;5.00;99.90
7461;DHT22;6757;52.258;12.840;2022-11-14T08:09:34;5.10;99.90
7461;DHT22;6757;52.258;12.840;2022-11-14T08:12:01;5.10;99.90
7461;DHT22;6757;52.258;12.840;2022-11-14T08:14:28;5.90;99.90
7461;DHT22;6757;52.258;12.840;2022-11-14T08:16:55;5.20;99.90
7461;DHT22;6757;52.258;12.840;2022-11-14T08:19:22;5.20;99.90
7461;DHT22;6757;52.258;12.840;2022-11-14T08:21:50;5.30;99.90
7461;DHT22;6757;52.258;12.840;2022-11-14T08:24:17;5.30;99.90
7461;DHT22;6757;52.258;12.840;2022-11-14T08:26:44;5.30;99.90
7461;DHT22;6757;52.258;12.840;2022-11-14T08:29:11;5.40;99.90
7461;DHT22;6757;52.258;12.840;2022-11-14T08:31:38;5.50;99.90
7461;DHT22;6757;52.258;12.840;2022-11-14T08:34:04;5.50;99.90
7461;DHT22;6757;52.258;12.840;2022-11-14T08:36:31;5.50;99.90
7461;DHT22;6757;52.258;12.840;2022-11-14T08:39:00;5.60;99.90
7461;DHT22;6757;52.258;12.840;2022-11-14T08:41:26;5.60;99.90
7461;DHT22;6757;52.258;12.840;2022-11-14T08:43:53;5.60;99.90
7461;DHT22;6757;52.258;12.840;2022-11-14T08:46:20;5.60;99.90
7461;DHT22;6757;52.258;12.840;2022-11-14T08:48:47;5.70;99.90
7461;DHT22;6757;52.258;12.840;2022-11-14T08:51:14;5.70;99.90
7461;DHT22;6757;52.258;12.840;2022-11-14T08:53:41;5.70;99.90
7461;DHT22;6757;52.258;12.840;2022-11-14T08:56:10;5.80;99.90
7461;DHT22;6757;52.258;12.840;2022-11-14T08:58:37;5.80;99.90
7461;DHT22;6757;52.258;12.840;2022-11-14T09:01:06;5.90;99.90
7461;DHT22;6757;52.258;12.840;2022-11-14T09:03:33;5.90;99.90
7461;DHT22;6757;52.258;12.840;2022-11-14T09:06:01;6.00;99.90
7461;DHT22;6757;52.258;12.840;2022-11-14T09:08:28;6.00;99.90
7461;DHT22;6757;52.258;12.840;2022-11-14T09:10:59;6.00;99.90
7461;DHT22;6757;52.258;12.840;2022-11-14T09:13:30;6.10;99.90
7461;DHT22;6757;52.258;12.840;2022-11-14T09:15:57;6.10;99.90
7461;DHT22;6757;52.258;12.840;2022-11-14T09:18:24;6.10;99.90
7461;DHT22;6757;52.258;12.840;2022-11-14T09:20:51;6.20;99.90
7461;DHT22;6757;52.258;12.840;2022-11-14T09:23:18;6.30;99.90
7461;DHT22;6757;52.258;12.840;2022-11-14T09:25:45;6.30;99.90
7461;DHT22;6757;52.258;12.840;2022-11-14T09:28:12;6.40;99.90
7461;DHT22;6757;52.258;12.840;2022-11-14T09:30:40;6.50;99.90
7461;DHT22;6757;52.258;12.840;2022-11-14T09:33:07;6.50;99.90
7461;DHT22;6757;52.258;12.840;2022-11-14T09:35:34;6.60;99.90
7461;DHT22;6757;52.258;12.840;2022-11-14T09:38:04;6.70;99.90
7461;DHT22;6757;52.258;12.840;2022-11-14T09:40:45;6.70;99.90
7461;DHT22;6757;52.258;12.840;2022-11-14T09:43:35;6.80;99.90
7461;DHT22;6757;52.258;12.840;2022-11-14T09:46:18;6.90;99.90
7461;DHT22;6757;52.258;12.840;2022-11-14T09:48:46;6.90;99.90
7461;DHT22;6757;52.258;12.840;2022-11-14T09:51:16;7.00;99.90
7461;DHT22;6757;52.258;12.840;2022-11-14T09:53:49;7.10;99.90
7461;DHT22;6757;52.258;12.840;2022-11-14T09:56:21;7.20;99.90
7461;DHT22;6757;52.258;12.840;2022-11-14T09:58:50;7.20;99.90
7461;DHT22;6757;52.258;12.840;2022-11-14T10:01:29;7.30;99.90
7461;DHT22;6757;52.258;12.840;2022-11-14T10:04:07;7.40;99.90
7461;DHT22;6757;52.258;12.840;2022-11-14T10:06:46;7.50;99.90
7461;DHT22;6757;52.258;12.840;2022-11-14T10:09:39;7.90;99.90
7461;DHT22;6757;52.258;12.840;2022-11-14T10:12:19;8.30;99.90
7461;DHT22;6757;52.258;12.840;2022-11-14T10:15:02;8.70;99.90
7461;DHT22;6757;52.258;12.840;2022-11-14T10:17:53;8.90;99.90
7461;DHT22;6757;52.258;12.840;2022-11-14T10:20:29;9.10;99.90
7461;DHT22;6757;52.258;12.840;2022-11-14T10:23:09;9.10;99.90
7461;DHT22;6757;52.258;12.840;2022-11-14T10:25:51;9.10;99.90
7461;DHT22;6757;52.258;12.840;2022-11-14T10:28:48;9.10;99.90
7461;DHT22;6757;52.258;12.840;2022-11-14T10:31:32;9.10;99.90
7461;DHT22;6757;52.258;12.840;2022-11-14T10:34:14;9.10;99.90
7461;DHT22;6757;52.258;12.840;2022-11-14T10:36:55;9.10;99.90
7461;DHT22;6757;52.258;12.840;2022-11-14T10:39:31;9.10;99.90
7461;DHT22;6757;52.258;12.840;2022-11-14T10:42:07;9.20;99.90
7461;DHT22;6757;52.258;12.840;2022-11-14T10:44:41;9.30;99.90
7461;DHT22;6757;52.258;12.840;2022-11-14T10:47:17;9.40;99.90
7461;DHT22;6757;52.258;12.840;2022-11-14T10:49:47;9.50;99.90
7461;DHT22;6757;52.258;12.840;2022-11-14T10:52:19;9.60;99.90
7461;DHT22;6757;52.258;12.840;2022-11-14T10:55:05;9.70;99.90
7461;DHT22;6757;52.258;12.840;2022-11-14T10:57:33;9.70;99.90
7461;DHT22;6757;52.258;12.840;2022-11-14T11:00:00;9.80;99.90
7461;DHT22;6757;52.258;12.840;2022-11-14T11:02:46;9.80;99.90
7461;DHT22;6757;52.258;12.840;2022-11-14T11:05:17;9.90;99.90
7461;DHT22;6757;52.258;12.840;2022-11-14T11:07:49;9.90;99.90
7461;DHT22;6757;52.258;12.840;2022-11-14T11:10:37;10.00;99.90
7461;DHT22;6757;52.258;12.840;2022-11-14T11:13:31;10.10;99.90
7461;DHT22;6757;52.258;12.840;2022-11-14T11:16:01;10.20;99.90
7461;DHT22;6757;52.258;12.840;2022-11-14T11:18:31;10.30;99.90
7461;DHT22;6757;52.258;12.840;2022-11-14T11:21:08;10.50;99.90
7461;DHT22;6757;52.258;12.840;2022-11-14T11:23:50;10.60;99.90
7461;DHT22;6757;52.258;12.840;2022-11-14T11:26:21;10.80;99.90
7461;DHT22;6757;52.258;12.840;2022-11-14T11:29:14;10.90;99.90
7461;DHT22;6757;52.258;12.840;2022-11-14T11:31:50;11.10;99.90
7461;DHT22;6757;52.258;12.840;2022-11-14T11:34:22;11.20;99.90
7461;DHT22;6757;52.258;12.840;2022-11-14T11:36:56;11.40;99.90
7461;DHT22;6757;52.258;12.840;2022-11-14T11:39:29;11.50;99.90
7461;DHT22;6757;52.258;12.840;2022-11-14T11:42:01;11.60;99.90
7461;DHT22;6757;52.258;12.840;2022-11-14T11:44:35;11.70;99.90
7461;DHT22;6757;52.258;12.840;2022-11-14T11:47:11;11.70;99.90
7461;DHT22;6757;52.258;12.840;2022-11-14T11:49:43;11.70;99.90
7461;DHT22;6757;52.258;12.840;2022-11-14T11:52:12;11.80;99.90
7461;DHT22;6757;52.258;12.840;2022-11-14T11:54:49;11.80;99.90
7461;DHT22;6757;52.258;12.840;2022-11-14T11:57:25;11.80;99.90
7461;DHT22;6757;52.258;12.840;2022-11-14T12:00:03;11.90;99.90
7461;DHT22;6757;52.258;12.840;2022-11-14T12:02:33;11.90;99.90
7461;DHT22;6757;52.258;12.840;2022-11-14T12:05:02;12.00;99.90
7461;DHT22;6757;52.258;12.840;2022-11-14T12:07:37;12.10;99.90
7461;DHT22;6757;52.258;12.840;2022-11-14T12:10:14;12.30;99.90
7461;DHT22;6757;52.258;12.840;2022-11-14T12:13:00;12.40;99.90
7461;DHT22;6757;52.258;12.840;2022-11-14T12:15:45;12.60;99.90
7461;DHT22;6757;52.258;12.840;2022-11-14T12:18:38;12.90;99.90
7461;DHT22;6757;52.258;12.840;2022-11-14T12:21:17;13.20;99.90
7461;DHT22;6757;52.258;12.840;2022-11-14T12:24:04;13.40;99.90
7461;DHT22;6757;52.258;12.840;2022-11-14T12:26:59;13.60;99.90
7461;DHT22;6757;52.258;12.840;2022-11-14T12:29:53;13.90;99.90
7461;DHT22;6757;52.258;12.840;2022-11-14T12:32:32;14.20;99.90
7461;DHT22;6757;52.258;12.840;2022-11-14T12:35:04;14.40;99.90
7461;DHT22;6757;52.258;12.840;2022-11-14T12:37:34;14.60;99.90
7461;DHT22;6757;52.258;12.840;2022-11-14T12:40:05;14.80;99.90
7461;DHT22;6757;52.258;12.840;2022-11-14T12:42:33;14.90;99.90
7461;DHT22;6757;52.258;12.840;2022-11-14T12:45:01;14.90;99.90
7461;DHT22;6757;52.258;12.840;2022-11-14T12:47:28;15.10;99.90
7461;DHT22;6757;52.258;12.840;2022-11-14T12:50:03;15.30;99.90
7461;DHT22;6757;52.258;12.840;2022-11-14T12:52:48;15.60;99.90
7461;DHT22;6757;52.258;12.840;2022-11-14T12:58:41;16.20;99.90
7461;DHT22;6757;52.258;12.840;2022-11-14T13:01:36;16.40;99.90
7461;DHT22;6757;52.258;12.840;2022-11-14T13:04:21;16.70;99.90
7461;DHT22;6757;52.258;12.840;2022-11-14T13:07:02;17.00;99.90
7461;DHT22;6757;52.258;12.840;2022-11-14T13:09:53;17.10;99.90
7461;DHT22;6757;52.258;12.840;2022-11-14T13:12:32;17.20;99.90
7461;DHT22;6757;52.258;12.840;2022-11-14T13:15:28;17.30;99.90
7461;DHT22;6757;52.258;12.840;2022-11-14T13:18:20;17.50;99.90
7461;DHT22;6757;52.258;12.840;2022-11-14T13:21:16;17.60;99.90
7461;DHT22;6757;52.258;12.840;2022-11-14T13:24:05;17.60;99.90
7461;DHT22;6757;52.258;12.840;2022-11-14T13:26:48;17.50;99.90
7461;DHT22;6757;52.258;12.840;2022-11-14T13:32:55;17.60;99.90
7461;DHT22;6757;52.258;12.840;2022-11-14T13:35:34;17.70;99.90
7461;DHT22;6757;52.258;12.840;2022-11-14T13:45:15;17.50;99.90
7461;DHT22;6757;52.258;12.840;2022-11-14T13:48:11;17.40;99.90
7461;DHT22;6757;52.258;12.840;2022-11-14T13:50:50;17.10;99.90
7461;DHT22;6757;52.258;12.840;2022-11-14T13:53:26;16.70;99.90
7461;DHT22;6757;52.258;12.840;2022-11-14T13:55:59;16.30;99.90
7461;DHT22;6757;52.258;12.840;2022-11-14T13:58:44;15.80;99.90
7461;DHT22;6757;52.258;12.840;2022-11-14T14:01:36;15.40;99.90
7461;DHT22;6757;52.258;12.840;2022-11-14T14:04:22;15.00;99.90
7461;DHT22;6757;52.258;12.840;2022-11-14T14:07:03;14.60;99.90
7461;DHT22;6757;52.258;12.840;2022-11-14T14:09:40;14.30;99.90
7461;DHT22;6757;52.258;12.840;2022-11-14T14:15:21;13.70;99.90
7461;DHT22;6757;52.258;12.840;2022-11-14T14:18:03;13.40;99.90
7461;DHT22;6757;52.258;12.840;2022-11-14T14:20:42;13.20;99.90
7461;DHT22;6757;52.258;12.840;2022-11-14T14:23:22;13.00;99.90
7461;DHT22;6757;52.258;12.840;2022-11-14T14:26:00;12.80;99.90
7461;DHT22;6757;52.258;12.840;2022-11-14T14:28:38;12.60;99.90
7461;DHT22;6757;52.258;12.840;2022-11-14T14:31:11;12.40;99.90
7461;DHT22;6757;52.258;12.840;2022-11-14T14:33:41;12.30;99.90
7461;DHT22;6757;52.258;12.840;2022-11-14T14:36:21;12.10;99.90
7461;DHT22;6757;52.258;12.840;2022-11-14T14:38:50;12.00;99.90
7461;DHT22;6757;52.258;12.840;2022-11-14T14:41:33;11.90;99.90
7461;DHT22;6757;52.258;12.840;2022-11-14T14:44:01;11.70;99.90
7461;DHT22;6757;52.258;12.840;2022-11-14T14:46:30;11.60;99.90
7461;DHT22;6757;52.258;12.840;2022-11-14T14:49:01;11.50;99.90
7461;DHT22;6757;52.258;12.840;2022-11-14T14:51:31;11.40;99.90
7461;DHT22;6757;52.258;12.840;2022-11-14T14:53:59;11.30;99.90
7461;DHT22;6757;52.258;12.840;2022-11-14T14:56:26;11.20;99.90
7461;DHT22;6757;52.258;12.840;2022-11-14T14:58:54;11.10;99.90
7461;DHT22;6757;52.258;12.840;2022-11-14T15:01:24;11.00;99.90
7461;DHT22;6757;52.258;12.840;2022-11-14T15:04:01;10.90;99.90
7461;DHT22;6757;52.258;12.840;2022-11-14T15:06:32;10.80;99.90
7461;DHT22;6757;52.258;12.840;2022-11-14T15:09:06;10.60;99.90
7461;DHT22;6757;52.258;12.840;2022-11-14T15:11:38;10.50;99.90
7461;DHT22;6757;52.258;12.840;2022-11-14T15:14:12;10.40;99.90
7461;DHT22;6757;52.258;12.840;2022-11-14T15:16:43;10.20;99.90
7461;DHT22;6757;52.258;12.840;2022-11-14T15:19:14;10.10;99.90
7461;DHT22;6757;52.258;12.840;2022-11-14T15:21:43;10.00;99.90
7461;DHT22;6757;52.258;12.840;2022-11-14T15:24:15;9.90;99.90
7461;DHT22;6757;52.258;12.840;2022-11-14T15:26:44;9.80;99.90
7461;DHT22;6757;52.258;12.840;2022-11-14T15:29:17;9.70;99.90
7461;DHT22;6757;52.258;12.840;2022-11-14T15:31:46;9.50;99.90
7461;DHT22;6757;52.258;12.840;2022-11-14T15:34:25;9.40;99.90
7461;DHT22;6757;52.258;12.840;2022-11-14T15:37:19;9.40;99.90
7461;DHT22;6757;52.258;12.840;2022-11-14T15:39:47;9.30;99.90
7461;DHT22;6757;52.258;12.840;2022-11-14T15:42:17;9.20;99.90
7461;DHT22;6757;52.258;12.840;2022-11-14T15:44:46;9.10;99.90
7461;DHT22;6757;52.258;12.840;2022-11-14T15:47:19;9.00;99.90
7461;DHT22;6757;52.258;12.840;2022-11-14T15:49:57;9.00;99.90
7461;DHT22;6757;52.258;12.840;2022-11-14T15:52:29;8.90;99.90
7461;DHT22;6757;52.258;12.840;2022-11-14T15:54:58;8.90;99.90
7461;DHT22;6757;52.258;12.840;2022-11-14T15:57:25;8.80;99.90
7461;DHT22;6757;52.258;12.840;2022-11-14T15:59:52;8.80;99.90
7461;DHT22;6757;52.258;12.840;2022-11-14T16:02:21;8.70;99.90
7461;DHT22;6757;52.258;12.840;2022-11-14T16:04:49;8.70;99.90
7461;DHT22;6757;52.258;12.840;2022-11-14T16:07:18;8.70;99.90
7461;DHT22;6757;52.258;12.840;2022-11-14T16:09:46;8.60;99.90
7461;DHT22;6757;52.258;12.840;2022-11-14T16:12:13;8.50;99.90
7461;DHT22;6757;52.258;12.840;2022-11-14T16:14:40;8.50;99.90
7461;DHT22;6757;52.258;12.840;2022-11-14T16:17:11;8.40;99.90
7461;DHT22;6757;52.258;12.840;2022-11-14T16:19:39;8.40;99.90
7461;DHT22;6757;52.258;12.840;2022-11-14T16:22:09;8.30;99.90
7461;DHT22;6757;52.258;12.840;2022-11-14T16:24:39;8.30;99.90
7461;DHT22;6757;52.258;12.840;2022-11-14T16:27:05;8.20;99.90
7461;DHT22;6757;52.258;12.840;2022-11-14T16:29:32;8.20;99.90
7461;DHT22;6757;52.258;12.840;2022-11-14T16:32:00;8.10;99.90
7461;DHT22;6757;52.258;12.840;2022-11-14T16:34:28;8.00;99.90
7461;DHT22;6757;52.258;12.840;2022-11-14T16:36:59;8.00;99.90
7461;DHT22;6757;52.258;12.840;2022-11-14T16:39:27;7.90;99.90